createdAt,value
2023-02-24T00:02:59.304Z,98137.63
2023-02-24T00:06:03.582Z,98134.94
2023-02-24T00:09:06.928Z,98137.66
2023-02-24T00:12:10.739Z,98128.16
2023-02-24T00:15:15.221Z,98131.69
2023-02-24T00:18:17.058Z,98129.72
2023-02-24T00:21:19.367Z,98122.66
2023-02-24T00:24:21.777Z,98120.91
2023-02-24T00:27:23.550Z,98106.84
2023-02-24T00:30:28.434Z,98106.81
2023-02-24T00:33:30.983Z,98091.75
2023-02-24T00:36:34.101Z,98092.53
2023-02-24T00:39:36.589Z,98083.88
2023-02-24T00:42:39.970Z,98087.59
2023-02-24T00:45:43.310Z,98077.13
2023-02-24T00:48:45.981Z,98070.25
2023-02-24T00:51:48.855Z,98079.25
2023-02-24T00:54:51.271Z,98079.31
2023-02-24T00:57:52.932Z,98072.47
2023-02-24T01:00:56.334Z,98069.03
2023-02-24T01:03:58.765Z,98061.06
2023-02-24T01:07:00.710Z,98063.56
2023-02-24T01:10:02.436Z,98060.03
2023-02-24T01:13:04.322Z,98058.44
2023-02-24T01:16:07.736Z,98054.06
2023-02-24T01:22:29.900Z,98051.94
2023-02-24T01:25:31.798Z,98040.53
2023-02-24T01:28:33.436Z,98048.53
2023-02-24T01:31:38.754Z,98044.19
2023-02-24T01:34:43.443Z,98045.81
2023-02-24T01:37:45.794Z,98039.59
2023-02-24T01:40:55.238Z,98030.91
2023-02-24T01:43:58.991Z,98032.91
2023-02-24T01:47:04.082Z,98025.09
2023-02-24T01:50:06.181Z,98021.50
2023-02-24T01:53:08.696Z,98012.59
2023-02-24T01:56:13.689Z,98022.31
2023-02-24T01:59:16.241Z,98013.69
2023-02-24T02:02:19.999Z,98008.41
2023-02-24T02:05:22.660Z,98000.56
2023-02-24T02:08:24.858Z,97996.97
2023-02-24T02:11:28.458Z,97992.66
2023-02-24T02:14:31.196Z,97982.16
2023-02-24T02:17:37.477Z,97978.41
2023-02-24T02:21:09.239Z,97975.78
2023-02-24T02:24:20.873Z,97974.94
2023-02-24T02:27:33.751Z,97962.66
2023-02-24T02:30:43.969Z,97963.53
2023-02-24T02:34:01.647Z,97955.44
2023-02-24T02:37:09.959Z,97938.75
2023-02-24T02:40:21.781Z,97937.25
2023-02-24T02:43:27.500Z,97931.13
2023-02-24T02:46:35.417Z,97922.31
2023-02-24T02:49:41.863Z,97917.25
2023-02-24T02:52:47.611Z,97921.66
2023-02-24T02:55:53.562Z,97908.56
2023-02-24T02:58:56.703Z,97918.19
2023-02-24T03:02:11.438Z,97912.06
2023-02-24T03:05:20.256Z,97900.66
2023-02-24T03:08:25.804Z,97907.84
2023-02-24T03:11:27.690Z,97901.66
2023-02-24T03:14:33.349Z,97896.34
2023-02-24T03:17:41.337Z,97898.13
2023-02-24T03:20:47.479Z,97885.97
2023-02-24T03:23:50.668Z,97886.88
2023-02-24T03:26:59.843Z,97880.69
2023-02-24T03:30:07.217Z,97871.97
2023-02-24T03:33:11.771Z,97870.44
2023-02-24T03:36:15.426Z,97855.50
2023-02-24T03:39:17.116Z,97866.03
2023-02-24T03:42:42.097Z,97867.84
2023-02-24T03:45:43.877Z,97857.31
2023-02-24T03:48:47.995Z,97864.47
2023-02-24T03:51:57.065Z,97855.75
2023-02-24T03:55:15.280Z,97847.88
2023-02-24T03:58:18.730Z,97846.97
2023-02-24T04:01:25.473Z,97855.75
2023-02-24T04:04:33.096Z,97852.28
2023-02-24T04:07:53.174Z,97848.78
2023-02-24T04:10:59.654Z,97847.13
2023-02-24T04:14:08.065Z,97842.75
2023-02-24T04:17:14.144Z,97842.00
2023-02-24T04:20:20.426Z,97840.19
2023-02-24T04:23:38.636Z,97847.34
2023-02-24T04:26:41.311Z,97843.00
2023-02-24T04:29:47.294Z,97844.72
2023-02-24T04:32:51.020Z,97848.25
2023-02-24T04:35:53.488Z,97839.69
2023-02-24T04:39:00.295Z,97835.22
2023-02-24T04:42:01.920Z,97825.63
2023-02-24T04:45:09.960Z,97835.50
2023-02-24T04:48:14.387Z,97836.56
2023-02-24T04:51:16.017Z,97830.38
2023-02-24T04:54:19.635Z,97819.88
2023-02-24T04:57:21.410Z,97817.34
2023-02-24T05:00:26.501Z,97814.88
2023-02-24T05:03:30.184Z,97812.28
2023-02-24T05:06:32.094Z,97803.63
2023-02-24T05:09:35.011Z,97797.63
2023-02-24T05:12:39.982Z,97796.84
2023-02-24T05:15:42.643Z,97786.56
2023-02-24T05:18:47.512Z,97791.06
2023-02-24T05:21:49.096Z,97784.22
2023-02-24T05:24:52.201Z,97784.38
2023-02-24T05:27:53.859Z,97777.47
2023-02-24T05:30:56.361Z,97765.34
2023-02-24T05:33:58.898Z,97775.94
2023-02-24T05:37:01.868Z,97773.44
2023-02-24T05:40:05.319Z,97760.34
2023-02-24T05:43:06.901Z,97758.63
2023-02-24T05:46:08.578Z,97755.16
2023-02-24T05:49:14.465Z,97749.94
2023-02-24T05:52:16.064Z,97744.72
2023-02-24T05:55:19.011Z,97742.09
2023-02-24T05:58:21.003Z,97733.41
2023-02-24T06:01:22.843Z,97728.09
2023-02-24T06:04:39.841Z,97726.31
2023-02-24T06:07:43.192Z,97720.97
2023-02-24T06:10:47.398Z,97714.88
2023-02-24T06:13:49.191Z,97719.19
2023-02-24T06:16:51.070Z,97709.63
2023-02-24T06:19:55.917Z,97709.63
2023-02-24T06:22:58.414Z,97707.91
2023-02-24T06:26:04.748Z,97697.38
2023-02-24T06:29:06.473Z,97697.38
2023-02-24T06:32:11.168Z,97695.66
2023-02-24T06:35:12.801Z,97687.81
2023-02-24T06:38:17.166Z,97678.25
2023-02-24T06:41:20.601Z,97681.69
2023-02-24T06:44:24.446Z,97669.47
2023-02-24T06:47:27.038Z,97665.06
2023-02-24T06:50:28.997Z,97656.38
2023-02-24T06:53:31.815Z,97659.88
2023-02-24T06:56:38.766Z,97648.50
2023-02-24T06:59:41.245Z,97634.47
2023-02-24T07:02:42.852Z,97634.41
2023-02-24T07:05:50.208Z,97637.03
2023-02-24T07:08:52.858Z,97630.03
2023-02-24T07:11:56.803Z,97628.22
2023-02-24T07:14:59.040Z,97630.88
2023-02-24T07:18:00.713Z,97623.84
2023-02-24T07:21:05.317Z,97627.25
2023-02-24T07:24:07.268Z,97612.38
2023-02-24T07:27:12.089Z,97618.41
2023-02-24T07:30:15.798Z,97604.34
2023-02-24T07:33:19.370Z,97607.75
2023-02-24T07:36:23.483Z,97605.13
2023-02-24T07:39:25.853Z,97596.28
2023-02-24T07:42:30.731Z,97594.56
2023-02-24T07:45:32.321Z,97581.38
2023-02-24T07:48:34.986Z,97582.22
2023-02-24T07:51:38.931Z,97573.34
2023-02-24T07:54:40.616Z,97570.78
2023-02-24T07:57:46.668Z,97564.75
2023-02-24T08:00:59.709Z,97562.06
2023-02-24T08:04:01.480Z,97554.88
2023-02-24T08:07:04.218Z,97543.47
2023-02-24T08:10:10.578Z,97538.19
2023-02-24T08:13:13.483Z,97533.03
2023-02-24T08:16:15.122Z,97537.41
2023-02-24T08:19:21.100Z,97536.38
2023-02-24T08:22:25.883Z,97523.19
2023-02-24T08:25:37.192Z,97518.84
2023-02-24T08:28:40.606Z,97510.94
2023-02-24T08:31:43.349Z,97511.00
2023-02-24T08:34:45.434Z,97511.81
2023-02-24T08:37:48.087Z,97502.16
2023-02-24T08:40:51.331Z,97503.78
2023-02-24T08:43:55.576Z,97492.50
2023-02-24T08:46:58.041Z,97483.66
2023-02-24T08:49:59.977Z,97477.53
2023-02-24T08:53:01.565Z,97475.75
2023-02-24T08:56:09.808Z,97467.97
2023-02-24T08:59:32.400Z,97468.81
2023-02-24T09:02:40.370Z,97468.78
2023-02-24T09:05:42.235Z,97447.78
2023-02-24T09:08:45.480Z,97450.41
2023-02-24T09:11:48.165Z,97454.97
2023-02-24T09:14:55.365Z,97442.91
2023-02-24T09:18:07.397Z,97448.31
2023-02-24T09:21:36.600Z,97442.50
2023-02-24T09:24:38.305Z,97430.47
2023-02-24T09:27:42.389Z,97427.03
2023-02-24T09:30:53.606Z,97419.31
2023-02-24T09:33:55.444Z,97420.38
2023-02-24T09:37:03.553Z,97414.25
2023-02-24T09:40:20.882Z,97415.22
2023-02-24T09:43:24.665Z,97404.75
2023-02-24T09:46:27.947Z,97398.84
2023-02-24T09:49:40.040Z,97390.16
2023-02-24T09:52:42.097Z,97390.97
2023-02-24T09:56:00.668Z,97391.00
2023-02-24T09:59:11.577Z,97384.81
2023-02-24T10:13:13.789Z,97356.03
2023-02-24T10:16:16.803Z,97360.41
2023-02-24T10:19:24.256Z,97352.53
2023-02-24T10:22:40.588Z,97348.19
2023-02-24T10:25:53.882Z,97348.13
2023-02-24T10:29:02.650Z,97339.41
2023-02-24T10:32:17.134Z,97327.22
2023-02-24T10:35:19.552Z,97325.41
2023-02-24T10:38:21.635Z,97331.47
2023-02-24T10:41:29.306Z,97335.81
2023-02-24T10:44:36.506Z,97325.31
2023-02-24T10:47:44.418Z,97325.31
2023-02-24T10:50:55.711Z,97311.34
2023-02-24T10:54:27.455Z,97317.47
2023-02-24T10:57:44.779Z,97317.47
2023-02-24T11:01:13.198Z,97312.94
2023-02-24T11:04:38.944Z,97304.19
2023-02-24T11:07:53.949Z,97291.97
2023-02-24T11:11:07.070Z,97278.94
2023-02-24T11:14:35.830Z,97275.47
2023-02-24T11:17:46.209Z,97264.97
2023-02-24T11:20:50.385Z,97268.50
2023-02-24T11:23:53.394Z,97247.53
2023-02-24T11:26:55.207Z,97235.41
2023-02-24T11:30:06.462Z,97234.72
2023-02-24T11:33:26.148Z,97222.41
2023-02-24T11:36:34.734Z,97220.69
2023-02-24T11:39:50.526Z,97201.34
2023-02-24T11:42:53.591Z,97197.00
2023-02-24T11:46:01.038Z,97191.00
2023-02-24T11:49:08.751Z,97190.25
2023-02-24T11:52:14.339Z,97188.53
2023-02-24T11:55:22.617Z,97184.13
2023-02-24T11:58:27.337Z,97179.81
2023-02-24T12:01:31.286Z,97171.94
2023-02-24T12:04:36.330Z,97167.75
2023-02-24T12:07:39.989Z,97152.84
2023-02-24T12:10:47.643Z,97148.47
2023-02-24T12:13:53.016Z,97151.09
2023-02-24T12:16:59.403Z,97150.22
2023-02-24T12:20:07.328Z,97130.94
2023-02-24T12:23:15.927Z,97141.56
2023-02-24T12:26:18.861Z,97118.72
2023-02-24T12:29:32.563Z,97123.97
2023-02-24T12:32:50.803Z,97116.84
2023-02-24T12:35:59.601Z,97114.22
2023-02-24T12:39:10.377Z,97129.13
2023-02-24T12:42:18.377Z,97115.06
2023-02-24T12:45:31.370Z,97102.81
2023-02-24T12:49:00.269Z,97101.06
2023-02-24T12:52:10.517Z,97093.06
2023-02-24T12:55:18.742Z,97083.56
2023-02-24T12:58:22.417Z,97075.63
2023-02-24T13:01:27.458Z,97080.88
2023-02-24T13:04:46.884Z,97065.09
2023-02-24T13:07:59.392Z,97073.88
2023-02-24T13:11:04.924Z,97062.47
2023-02-24T13:14:12.698Z,97066.06
2023-02-24T13:17:20.154Z,97063.56
2023-02-24T13:20:26.743Z,97052.09
2023-02-24T13:23:31.749Z,97054.63
2023-02-24T13:26:33.503Z,97050.28
2023-02-24T13:29:45.575Z,97045.97
2023-02-24T13:32:47.805Z,97033.75
2023-02-24T13:35:50.411Z,97035.59
2023-02-24T13:39:04.384Z,97038.09
2023-02-24T13:42:20.402Z,97034.50
2023-02-24T13:45:22.271Z,97028.22
2023-02-24T13:48:47.902Z,97024.69
2023-02-24T13:51:54.828Z,97027.25
2023-02-24T13:55:08.715Z,97015.84
2023-02-24T13:58:20.509Z,97013.06
2023-02-24T14:01:23.390Z,97010.28
2023-02-24T14:04:29.298Z,97004.94
2023-02-24T14:07:34.173Z,97004.94
2023-02-24T14:10:38.934Z,97004.78
2023-02-24T14:13:44.865Z,96996.00
2023-02-24T14:16:49.793Z,96999.41
2023-02-24T14:19:51.810Z,96998.56
2023-02-24T14:22:54.775Z,96996.72
2023-02-24T14:25:59.271Z,96993.16
2023-02-24T14:29:01.641Z,97000.13
2023-02-24T14:32:04.615Z,96975.47
2023-02-24T14:35:06.601Z,96965.66
2023-02-24T14:38:27.294Z,96971.78
2023-02-24T14:41:30.316Z,96975.25
2023-02-24T14:44:41.741Z,96964.63
2023-02-24T14:47:43.531Z,96953.00
2023-02-24T14:50:45.122Z,96957.34
2023-02-24T14:53:50.253Z,96955.63
2023-02-24T14:56:53.884Z,96946.84
2023-02-24T14:59:57.189Z,96951.13
2023-02-24T15:03:05.803Z,96947.50
2023-02-24T15:06:11.795Z,96947.38
2023-02-24T15:09:15.835Z,96938.63
2023-02-24T15:12:23.263Z,96939.34
2023-02-24T15:15:29.351Z,96931.41
2023-02-24T15:18:31.240Z,96936.59
2023-02-24T15:21:34.713Z,96927.81
2023-02-24T15:24:39.346Z,96939.22
2023-02-24T15:27:50.929Z,96930.56
2023-02-24T15:30:56.967Z,96929.75
2023-02-24T15:34:00.440Z,96922.72
2023-02-24T15:37:04.630Z,96923.72
2023-02-24T15:40:12.833Z,96913.06
2023-02-24T15:43:30.652Z,96902.28
2023-02-24T15:46:33.435Z,96889.75
2023-02-24T15:49:35.272Z,96884.38
2023-02-24T15:52:38.328Z,96879.88
2023-02-24T15:55:41.399Z,96882.31
2023-02-24T15:58:44.830Z,96875.22
2023-02-24T16:01:46.682Z,96874.34
2023-02-24T16:04:49.071Z,96862.06
2023-02-24T16:07:50.867Z,96861.19
2023-02-24T16:10:53.919Z,96850.75
2023-02-24T16:13:58.441Z,96844.47
2023-02-24T16:17:02.239Z,96843.28
2023-02-24T16:20:09.209Z,96829.13
2023-02-24T16:23:10.728Z,96835.03
2023-02-24T16:26:15.332Z,96826.84
2023-02-24T16:29:18.512Z,96832.84
2023-02-24T16:32:23.788Z,96821.41
2023-02-24T16:35:26.428Z,96820.41
2023-02-24T16:38:28.104Z,96822.94
2023-02-24T16:41:31.192Z,96821.16
2023-02-24T16:44:34.236Z,96826.34
2023-02-24T16:47:35.980Z,96820.16
2023-02-24T16:50:39.761Z,96829.69
2023-02-24T16:53:42.010Z,96816.53
2023-02-24T16:56:45.228Z,96818.19
2023-02-24T16:59:48.187Z,96807.41
2023-02-24T17:02:50.238Z,96814.31
2023-02-24T17:05:52.011Z,96813.38
2023-02-24T17:08:53.817Z,96822.03
2023-02-24T17:11:55.709Z,96815.84
2023-02-24T17:14:59.396Z,96805.19
2023-02-24T17:18:01.086Z,96792.81
2023-02-24T17:21:03.490Z,96812.03
2023-02-24T17:24:05.440Z,96806.66
2023-02-24T17:27:07.872Z,96802.25
2023-02-24T17:30:12.748Z,96796.19
2023-02-24T17:33:14.810Z,96803.03
2023-02-24T17:36:16.515Z,96804.66
2023-02-24T17:39:18.094Z,96803.66
2023-02-24T17:42:19.687Z,96826.47
2023-02-24T17:45:22.792Z,96812.31
2023-02-24T17:48:25.475Z,96815.88
2023-02-24T17:51:27.922Z,96825.72
2023-02-24T17:54:29.672Z,96823.22
2023-02-24T17:57:34.157Z,96820.84
2023-02-24T18:00:38.546Z,96827.03
2023-02-24T18:03:40.186Z,96829.78
2023-02-24T18:06:41.994Z,96836.13
2023-02-24T18:09:43.577Z,96844.00
2023-02-24T18:12:45.257Z,96837.81
2023-02-24T18:15:48.385Z,96843.03
2023-02-24T18:18:50.028Z,96855.19
2023-02-24T18:21:51.759Z,96849.13
2023-02-24T18:24:53.328Z,96843.19
2023-02-24T18:27:54.895Z,96836.16
2023-02-24T18:30:58.352Z,96839.47
2023-02-24T18:34:00.482Z,96832.22
2023-02-24T18:37:02.401Z,96824.16
2023-02-24T18:40:04.439Z,96821.31
2023-02-24T18:43:06.058Z,96834.22
2023-02-24T18:46:11.214Z,96834.00
2023-02-24T18:49:13.486Z,96825.00
2023-02-24T18:52:15.061Z,96829.22
2023-02-24T18:55:17.978Z,96825.59
2023-02-24T18:58:19.559Z,96835.19
2023-02-24T19:01:25.797Z,96826.41
2023-02-24T19:04:27.693Z,96835.06
2023-02-24T19:07:29.320Z,96838.75
2023-02-24T19:10:30.984Z,96848.34
2023-02-24T19:13:32.615Z,96842.19
2023-02-24T19:16:36.451Z,96847.47
2023-02-24T19:19:38.558Z,96853.63
2023-02-24T19:22:40.274Z,96850.09
2023-02-24T19:25:41.932Z,96850.13
2023-02-24T19:28:43.708Z,96851.97
2023-02-24T19:31:47.263Z,96858.25
2023-02-24T19:34:49.139Z,96853.91
2023-02-24T19:37:50.877Z,96862.78
2023-02-24T19:40:52.569Z,96866.34
2023-02-24T19:43:54.270Z,96862.03
2023-02-24T19:46:57.211Z,96856.91
2023-02-24T19:49:58.929Z,96861.25
2023-02-24T19:53:00.545Z,96871.00
2023-02-24T19:56:02.555Z,96868.50
2023-02-24T19:59:05.389Z,96871.06
2023-02-24T20:02:09.713Z,96874.69
2023-02-24T20:05:11.586Z,96873.84
2023-02-24T20:08:13.439Z,96871.25
2023-02-24T20:11:15.197Z,96882.63
2023-02-24T20:14:17.733Z,96887.91
2023-02-24T20:17:20.780Z,96883.56
2023-02-24T20:20:22.639Z,96878.22
2023-02-24T20:23:24.614Z,96881.84
2023-02-24T20:26:26.875Z,96885.34
2023-02-24T20:29:29.508Z,96890.59
2023-02-24T20:32:32.770Z,96886.19
2023-02-24T20:35:39.899Z,96882.63
2023-02-24T20:38:41.919Z,96885.34
2023-02-24T20:41:44.148Z,96883.50
2023-02-24T20:44:45.794Z,96888.75
2023-02-24T20:47:49.098Z,96897.47
2023-02-24T20:50:50.960Z,96886.94
2023-02-24T20:53:57.685Z,96891.34
2023-02-24T20:57:00.292Z,96892.31
2023-02-24T21:00:07.368Z,96889.69
2023-02-24T21:03:12.444Z,96888.91
2023-02-24T21:06:16.207Z,96889.75
2023-02-24T21:09:18.171Z,96900.41
2023-02-24T21:12:19.991Z,96899.56
2023-02-24T21:15:21.882Z,96908.38
2023-02-24T21:18:25.175Z,96897.06
2023-02-24T21:21:27.004Z,96894.34
2023-02-24T21:24:30.586Z,96890.94
2023-02-24T21:27:32.189Z,96886.56
2023-02-24T21:30:33.847Z,96881.31
2023-02-24T21:33:36.916Z,96891.03
2023-02-24T21:36:38.491Z,96885.72
2023-02-24T21:39:40.154Z,96894.53
2023-02-24T21:42:46.772Z,96884.94
2023-02-24T21:45:48.381Z,96889.34
2023-02-24T21:48:54.466Z,96891.03
2023-02-24T21:51:56.056Z,96892.81
2023-02-24T21:54:57.973Z,96887.56
2023-02-24T21:57:59.582Z,96898.09
2023-02-24T22:01:01.856Z,96889.41
2023-02-24T22:04:06.048Z,96893.19
2023-02-24T22:07:07.642Z,96888.84
2023-02-24T22:10:10.229Z,96889.91
2023-02-24T22:13:11.889Z,96895.31
2023-02-24T22:16:14.878Z,96886.50
2023-02-24T22:19:19.894Z,96883.94
2023-02-24T22:22:21.469Z,96886.50
2023-02-24T22:25:23.031Z,96884.78
2023-02-24T22:28:25.325Z,96890.03
2023-02-24T22:31:27.872Z,96894.47
2023-02-24T22:34:32.805Z,96889.22
2023-02-24T22:37:34.761Z,96895.53
2023-02-24T22:40:37.306Z,96901.06
2023-02-24T22:43:39.040Z,96904.59
2023-02-24T22:46:40.638Z,96895.81
2023-02-24T22:49:43.909Z,96914.09
2023-02-24T22:52:45.761Z,96914.03
2023-02-24T22:55:47.644Z,96915.84
2023-02-24T22:58:49.913Z,96928.94
2023-02-24T23:01:51.541Z,96923.63
2023-02-24T23:04:54.510Z,96921.06
2023-02-24T23:07:56.012Z,96916.84
2023-02-24T23:11:03.903Z,96922.97
2023-02-24T23:14:06.824Z,96929.06
2023-02-24T23:17:08.693Z,96924.78
2023-02-24T23:20:15.402Z,96942.25
2023-02-24T23:23:17.049Z,96929.31
2023-02-24T23:26:18.784Z,96947.84
2023-02-24T23:29:21.554Z,96948.75
2023-02-24T23:32:23.287Z,96948.84
2023-02-24T23:35:26.532Z,96951.56
2023-02-24T23:38:28.151Z,96955.16
2023-02-24T23:41:29.862Z,96958.66
2023-02-24T23:44:31.950Z,96959.56
2023-02-24T23:47:33.565Z,96963.97
2023-02-24T23:50:37.800Z,96954.38
2023-02-24T23:53:40.099Z,96945.56
2023-02-24T23:56:41.908Z,96947.28
2023-02-24T23:59:43.589Z,96955.09
